createdAt,value
2018-02-10T00:02:07.154Z,54.93
2018-02-10T00:04:36.018Z,52.43
2018-02-10T00:07:04.868Z,53.33
2018-02-10T00:09:33.708Z,48.73
2018-02-10T00:12:02.660Z,54.93
2018-02-10T00:14:31.554Z,53.17
2018-02-10T00:17:00.392Z,53.37
2018-02-10T00:19:29.907Z,56.13
2018-02-10T00:21:58.757Z,54.47
2018-02-10T00:24:27.644Z,58.63
2018-02-10T00:26:56.523Z,51.30
2018-02-10T00:29:25.372Z,55.57
2018-02-10T00:31:54.216Z,61.67
2018-02-10T00:34:23.098Z,61.13
2018-02-10T00:36:52.002Z,59.97
2018-02-10T00:39:20.832Z,59.40
2018-02-10T00:41:49.763Z,59.80
2018-02-10T00:44:18.619Z,62.37
2018-02-10T00:46:47.492Z,59.13
2018-02-10T00:49:16.368Z,65.40
2018-02-10T00:51:45.210Z,59.63
2018-02-10T00:54:14.054Z,64.23
2018-02-10T00:56:42.950Z,63.17
2018-02-10T00:59:12.620Z,63.10
2018-02-10T01:01:41.487Z,62.37
2018-02-10T01:04:10.360Z,52.30
2018-02-10T01:06:39.214Z,62.43
2018-02-10T01:09:08.050Z,57.03
2018-02-10T01:11:36.954Z,55.23
2018-02-10T01:14:05.790Z,57.57
2018-02-10T01:16:34.654Z,60.17
2018-02-10T01:19:03.548Z,61.83
2018-02-10T01:21:32.386Z,59.27
2018-02-10T01:24:01.253Z,68.20
2018-02-10T01:26:30.262Z,67.67
2018-02-10T01:28:59.094Z,58.53
2018-02-10T01:31:27.980Z,58.67
2018-02-10T01:33:57.516Z,54.30
2018-02-10T01:36:26.399Z,59.70
2018-02-10T01:38:55.220Z,57.07
2018-02-10T01:41:24.112Z,63.13
2018-02-10T01:43:53.026Z,65.30
2018-02-10T01:46:21.940Z,62.40
2018-02-10T01:48:51.012Z,59.93
2018-02-10T01:51:19.912Z,58.00
2018-02-10T01:53:48.790Z,59.97
2018-02-10T01:56:17.953Z,57.87
2018-02-10T01:58:46.774Z,63.70
2018-02-10T02:01:15.648Z,54.70
2018-02-10T02:03:44.512Z,55.60
2018-02-10T02:06:13.350Z,54.57
2018-02-10T02:08:42.216Z,52.20
2018-02-10T02:11:11.102Z,51.23
2018-02-10T02:13:39.994Z,55.30
2018-02-10T02:16:08.946Z,53.97
2018-02-10T02:18:37.774Z,51.47
2018-02-10T02:21:06.624Z,49.87
2018-02-10T02:23:35.502Z,50.23
2018-02-10T02:26:04.342Z,47.10
2018-02-10T02:28:33.251Z,49.43
2018-02-10T02:31:02.162Z,49.23
2018-02-10T02:33:31.014Z,51.67
2018-02-10T02:35:59.860Z,36.13
2018-02-10T02:38:28.731Z,43.33
2018-02-10T02:40:57.573Z,47.93
2018-02-10T02:43:26.407Z,44.97
2018-02-10T02:45:55.263Z,46.27
2018-02-10T02:48:24.804Z,44.17
2018-02-10T02:50:53.652Z,39.97
2018-02-10T02:53:22.541Z,43.60
2018-02-10T02:55:51.386Z,46.90
2018-02-10T02:58:20.218Z,43.13
2018-02-10T03:00:49.074Z,43.77
2018-02-10T03:03:17.938Z,42.93
2018-02-10T03:05:46.770Z,42.53
2018-02-10T03:08:15.632Z,46.20
2018-02-10T03:10:45.104Z,47.80
2018-02-10T03:13:13.982Z,43.57
2018-02-10T03:15:42.883Z,49.37
2018-02-10T03:18:11.729Z,45.60
2018-02-10T03:20:40.612Z,41.70
2018-02-10T03:23:09.475Z,41.77
2018-02-10T03:25:38.338Z,47.27
2018-02-10T03:28:07.242Z,44.00
2018-02-10T03:30:36.110Z,41.83
2018-02-10T03:33:04.960Z,45.67
2018-02-10T03:35:34.208Z,43.77
2018-02-10T03:38:04.216Z,42.33
2018-02-10T03:40:33.050Z,41.33
2018-02-10T03:43:01.884Z,42.67
2018-02-10T03:45:31.989Z,46.03
2018-02-10T03:48:00.838Z,45.90
2018-02-10T03:50:29.740Z,44.43
2018-02-10T03:52:58.609Z,47.47
2018-02-10T03:55:27.426Z,49.10
2018-02-10T03:57:56.523Z,43.77
2018-02-10T04:00:25.379Z,44.30
2018-02-10T04:02:54.274Z,42.93
2018-02-10T04:05:23.102Z,47.20
2018-02-10T04:07:52.662Z,45.77
2018-02-10T04:10:21.506Z,42.53
2018-02-10T04:12:50.338Z,42.23
2018-02-10T04:15:19.842Z,47.20
2018-02-10T04:17:49.524Z,45.70
2018-02-10T04:20:18.380Z,48.70
2018-02-10T04:22:47.790Z,51.93
2018-02-10T04:25:16.632Z,53.93
2018-02-10T04:27:45.486Z,59.97
2018-02-10T04:30:14.356Z,56.57
2018-02-10T04:32:43.192Z,61.00
2018-02-10T04:35:12.014Z,52.90
2018-02-10T04:37:40.938Z,59.07
2018-02-10T04:40:10.164Z,54.77
2018-02-10T04:42:39.954Z,56.03
2018-02-10T04:45:08.834Z,56.13
2018-02-10T04:47:37.670Z,57.43
2018-02-10T04:50:06.546Z,62.20
2018-02-10T04:52:36.734Z,54.50
2018-02-10T04:55:05.570Z,53.97
2018-02-10T04:57:34.404Z,61.30
2018-02-10T05:00:03.288Z,64.90
2018-02-10T05:02:32.122Z,58.37
2018-02-10T05:05:01.587Z,61.43
2018-02-10T05:07:30.703Z,66.77
2018-02-10T05:09:59.570Z,67.93
2018-02-10T05:12:28.765Z,78.77
2018-02-10T05:14:57.633Z,64.83
2018-02-10T05:17:26.492Z,82.13
2018-02-10T05:19:55.349Z,95.57
2018-02-10T05:22:24.179Z,89.93
2018-02-10T05:24:53.032Z,69.43
2018-02-10T05:27:21.894Z,87.57
2018-02-10T05:29:50.769Z,85.07
2018-02-10T05:32:19.609Z,90.57
2018-02-10T05:34:48.466Z,97.70
2018-02-10T05:37:17.344Z,86.10
2018-02-10T05:39:46.371Z,85.50
2018-02-10T05:42:15.250Z,66.33
2018-02-10T05:44:44.883Z,79.43
2018-02-10T05:47:13.827Z,82.20
2018-02-10T05:49:42.709Z,87.80
2018-02-10T05:52:11.619Z,84.40
2018-02-10T05:54:40.451Z,112.00
2018-02-10T05:57:09.980Z,80.03
2018-02-10T05:59:38.862Z,69.07
2018-02-10T06:02:07.693Z,75.43
2018-02-10T06:04:36.563Z,67.00
2018-02-10T06:07:05.415Z,103.73
2018-02-10T06:09:34.259Z,122.40
2018-02-10T06:12:03.815Z,80.70
2018-02-10T06:14:32.678Z,82.30
2018-02-10T06:17:01.532Z,92.73
2018-02-10T06:19:30.523Z,89.20
2018-02-10T06:21:59.359Z,83.23
2018-02-10T06:24:28.199Z,105.63
2018-02-10T06:26:57.053Z,72.03
2018-02-10T06:29:26.191Z,83.23
2018-02-10T06:31:55.026Z,78.37
2018-02-10T06:34:24.762Z,72.80
2018-02-10T06:36:53.598Z,102.03
2018-02-10T06:39:22.979Z,98.57
2018-02-10T06:41:51.923Z,79.73
2018-02-10T06:44:20.761Z,87.33
2018-02-10T06:46:49.645Z,77.87
2018-02-10T06:49:18.535Z,76.70
2018-02-10T06:51:47.381Z,83.73
2018-02-10T06:54:16.219Z,75.77
2018-02-10T06:56:45.384Z,69.33
2018-02-10T06:59:14.411Z,74.73
2018-02-10T07:01:43.351Z,72.87
2018-02-10T07:04:12.215Z,65.77
2018-02-10T07:06:41.517Z,70.13
2018-02-10T07:09:11.791Z,57.63
2018-02-10T07:11:40.768Z,58.70
2018-02-10T07:14:09.621Z,65.60
2018-02-10T07:16:38.475Z,50.53
2018-02-10T07:19:07.468Z,57.77
2018-02-10T07:21:36.346Z,55.57
2018-02-10T07:24:05.253Z,60.33
2018-02-10T07:26:34.863Z,63.83
2018-02-10T07:29:03.765Z,63.53
2018-02-10T07:31:33.331Z,66.17
2018-02-10T07:34:02.217Z,62.53
2018-02-10T07:36:31.091Z,70.53
2018-02-10T07:38:59.929Z,70.07
2018-02-10T07:41:29.739Z,81.67
2018-02-10T07:43:58.609Z,82.43
2018-02-10T07:46:27.453Z,85.10
2018-02-10T07:48:56.297Z,112.93
2018-02-10T07:51:25.129Z,126.20
2018-02-10T07:53:53.980Z,94.07
2018-02-10T07:56:22.889Z,122.37
2018-02-10T07:58:51.755Z,119.60
2018-02-10T08:01:20.660Z,104.00
2018-02-10T08:03:50.539Z,103.93
2018-02-10T08:06:19.399Z,148.07
2018-02-10T08:08:48.277Z,108.63
2018-02-10T08:11:17.667Z,135.40
2018-02-10T08:13:46.515Z,107.37
2018-02-10T08:16:15.351Z,73.77
2018-02-10T08:18:44.249Z,183.57
2018-02-10T08:21:13.091Z,130.23
2018-02-10T08:23:42.443Z,108.27
2018-02-10T08:26:11.306Z,95.27
2018-02-10T08:28:40.149Z,108.57
2018-02-10T08:31:10.387Z,100.23
2018-02-10T08:33:39.481Z,148.03
2018-02-10T08:36:08.335Z,116.17
2018-02-10T08:38:37.187Z,120.03
2018-02-10T08:41:06.054Z,141.87
2018-02-10T08:43:34.944Z,98.40
2018-02-10T08:46:03.794Z,119.90
2018-02-10T08:48:33.259Z,102.30
2018-02-10T08:51:02.107Z,108.07
2018-02-10T08:53:30.951Z,122.00
2018-02-10T08:55:59.796Z,102.60
2018-02-10T08:58:29.487Z,96.73
2018-02-10T09:00:58.413Z,105.93
2018-02-10T09:03:27.261Z,115.37
2018-02-10T09:05:56.475Z,128.90
2018-02-10T09:08:25.357Z,124.20
2018-02-10T09:10:54.801Z,97.57
2018-02-10T09:13:23.650Z,92.33
2018-02-10T09:15:53.283Z,92.87
2018-02-10T09:18:22.872Z,121.63
2018-02-10T09:20:52.060Z,85.63
2018-02-10T09:23:20.969Z,85.33
2018-02-10T09:25:50.152Z,85.70
2018-02-10T09:28:19.727Z,62.37
2018-02-10T09:30:48.608Z,59.23
2018-02-10T09:33:18.066Z,55.43
2018-02-10T09:35:47.245Z,64.47
2018-02-10T09:38:16.131Z,50.47
2018-02-10T09:40:45.500Z,53.33
2018-02-10T09:43:14.363Z,48.70
2018-02-10T09:45:43.277Z,49.30
2018-02-10T09:48:12.109Z,48.27
2018-02-10T09:50:40.985Z,39.90
2018-02-10T09:53:10.475Z,37.17
2018-02-10T09:55:39.784Z,32.17
2018-02-10T09:58:09.404Z,29.30
2018-02-10T10:00:38.806Z,31.70
2018-02-10T10:03:09.901Z,21.30
2018-02-10T10:05:38.769Z,21.43
2018-02-10T10:08:07.615Z,23.43
2018-02-10T10:10:36.546Z,23.37
2018-02-10T10:13:05.596Z,21.33
2018-02-10T10:15:34.427Z,17.40
2018-02-10T10:18:03.530Z,25.40
2018-02-10T10:20:32.758Z,19.23
2018-02-10T10:23:01.615Z,19.13
2018-02-10T10:25:30.447Z,20.47
2018-02-10T10:27:59.312Z,13.23
2018-02-10T10:30:28.148Z,18.33
2018-02-10T10:32:56.992Z,16.47
2018-02-10T10:35:25.897Z,16.30
2018-02-10T10:37:54.765Z,16.17
2018-02-10T10:40:23.698Z,17.70
2018-02-10T10:42:52.587Z,13.07
2018-02-10T10:45:21.413Z,18.90
2018-02-10T10:47:50.262Z,16.70
2018-02-10T10:50:19.103Z,18.47
2018-02-10T10:52:47.956Z,13.83
2018-02-10T10:55:16.836Z,15.00
2018-02-10T10:57:45.669Z,14.53
2018-02-10T11:00:15.485Z,17.43
2018-02-10T11:02:44.384Z,14.67
2018-02-10T11:05:13.206Z,16.73
2018-02-10T11:10:05.879Z,14.80
2018-02-10T11:12:34.769Z,15.43
2018-02-10T11:15:03.612Z,18.53
2018-02-10T11:17:32.488Z,9.67
2018-02-10T11:20:01.340Z,15.33
2018-02-10T11:22:30.194Z,11.50
2018-02-10T11:24:59.060Z,16.10
2018-02-10T11:27:27.899Z,10.63
2018-02-10T11:29:57.079Z,11.93
2018-02-10T11:32:26.026Z,13.60
2018-02-10T11:34:54.883Z,9.80
2018-02-10T11:37:23.722Z,12.97
2018-02-10T11:39:52.582Z,9.40
2018-02-10T11:42:21.410Z,6.70
2018-02-10T11:44:50.253Z,10.93
2018-02-10T11:47:19.190Z,11.33
2018-02-10T11:49:48.050Z,11.90
2018-02-10T11:52:16.878Z,9.77
2018-02-10T11:54:45.732Z,7.47
2018-02-10T11:57:14.570Z,9.43
2018-02-10T11:59:43.411Z,15.60
2018-02-10T12:02:15.212Z,11.90
2018-02-10T12:04:44.038Z,13.47
2018-02-10T12:07:12.906Z,12.30
2018-02-10T12:09:41.774Z,12.40
2018-02-10T12:12:10.638Z,18.40
2018-02-10T12:14:39.488Z,10.03
2018-02-10T12:17:08.352Z,10.53
2018-02-10T12:19:38.140Z,10.23
2018-02-10T12:22:07.022Z,10.97
2018-02-10T12:24:37.622Z,9.97
2018-02-10T12:27:06.546Z,8.70
2018-02-10T12:29:35.382Z,7.47
2018-02-10T12:32:04.315Z,8.77
2018-02-10T12:34:33.180Z,7.20
2018-02-10T12:37:02.013Z,6.37
2018-02-10T12:39:31.206Z,11.03
2018-02-10T12:42:00.076Z,8.27
2018-02-10T12:44:30.704Z,10.70
2018-02-10T12:46:59.588Z,9.23
2018-02-10T12:49:31.108Z,8.67
2018-02-10T12:52:00.380Z,9.60
2018-02-10T12:54:29.572Z,5.97
2018-02-10T12:56:58.420Z,9.77
2018-02-10T12:59:27.294Z,8.27
2018-02-10T13:01:56.142Z,6.20
2018-02-10T13:04:25.032Z,11.13
2018-02-10T13:06:53.920Z,9.43
2018-02-10T13:09:22.764Z,11.97
2018-02-10T13:11:52.468Z,13.77
2018-02-10T13:14:21.325Z,15.93
2018-02-10T13:16:50.190Z,14.37
2018-02-10T13:19:19.292Z,10.07
2018-02-10T13:21:48.239Z,9.87
2018-02-10T13:24:17.093Z,10.43
2018-02-10T13:26:46.010Z,9.90
2018-02-10T13:29:15.658Z,7.53
2018-02-10T13:31:44.762Z,8.33
2018-02-10T13:34:14.361Z,8.23
2018-02-10T13:36:43.894Z,10.23
2018-02-10T13:39:12.760Z,7.17
2018-02-10T13:41:41.859Z,7.47
2018-02-10T13:44:10.764Z,9.17
2018-02-10T13:46:43.414Z,7.27
2018-02-10T13:49:12.303Z,8.13
2018-02-10T13:51:41.136Z,7.53
2018-02-10T13:54:10.387Z,6.33
2018-02-10T13:56:39.540Z,8.80
2018-02-10T13:59:08.395Z,6.57
2018-02-10T14:01:37.249Z,5.07
2018-02-10T14:04:06.117Z,8.27
2018-02-10T14:06:37.488Z,6.73
2018-02-10T14:09:06.370Z,5.87
2018-02-10T14:11:35.221Z,9.47
2018-02-10T14:14:04.042Z,9.03
2018-02-10T14:16:32.914Z,9.00
2018-02-10T14:19:01.745Z,6.07
2018-02-10T14:21:30.626Z,6.67
2018-02-10T14:23:59.615Z,6.40
2018-02-10T14:26:29.634Z,4.60
2018-02-10T14:28:59.295Z,5.87
2018-02-10T14:31:28.129Z,5.47
2018-02-10T14:33:57.017Z,8.53
2018-02-10T14:36:25.903Z,6.63
2018-02-10T14:38:54.735Z,6.33
2018-02-10T14:41:24.158Z,7.00
2018-02-10T14:43:53.062Z,6.83
2018-02-10T14:46:22.442Z,8.10
2018-02-10T14:48:51.292Z,6.00
2018-02-10T14:51:44.515Z,7.93
2018-02-10T14:54:14.290Z,7.47
2018-02-10T14:56:43.131Z,9.33
2018-02-10T14:59:12.331Z,10.23
2018-02-10T15:01:41.166Z,8.37
2018-02-10T15:04:10.039Z,6.50
2018-02-10T15:06:39.714Z,8.73
2018-02-10T15:09:08.575Z,8.70
2018-02-10T15:11:37.406Z,7.07
2018-02-10T15:14:07.177Z,6.73
2018-02-10T15:16:36.166Z,7.40
2018-02-10T15:19:05.949Z,10.30
2018-02-10T15:21:35.790Z,9.73
2018-02-10T15:24:08.754Z,9.90
2018-02-10T15:26:37.654Z,10.00
2018-02-10T15:29:06.485Z,6.47
2018-02-10T15:31:54.929Z,11.73
2018-02-10T15:34:29.631Z,12.87
2018-02-10T15:36:58.840Z,8.57
2018-02-10T15:39:27.698Z,8.73
2018-02-10T15:41:56.583Z,7.23
2018-02-10T15:44:25.508Z,9.30
2018-02-10T15:46:54.375Z,11.57
2018-02-10T15:49:23.437Z,8.60
2018-02-10T15:51:52.311Z,6.00
2018-02-10T15:54:21.264Z,8.30
2018-02-10T15:56:50.111Z,8.10
2018-02-10T15:59:20.033Z,7.07
2018-02-10T16:01:49.040Z,8.27
2018-02-10T16:04:17.871Z,6.73
2018-02-10T16:06:46.748Z,9.10
2018-02-10T16:09:15.599Z,9.60
2018-02-10T16:11:44.431Z,9.60
2018-02-10T16:14:14.117Z,9.67
2018-02-10T16:16:43.013Z,7.07
2018-02-10T16:19:11.804Z,10.17
2018-02-10T16:21:40.719Z,11.13
2018-02-10T16:24:09.597Z,10.63
2018-02-10T16:26:38.459Z,9.47
2018-02-10T16:29:07.377Z,9.37
2018-02-10T16:31:36.247Z,7.63
2018-02-10T16:34:05.155Z,8.23
2018-02-10T16:36:34.074Z,8.93
2018-02-10T16:39:03.738Z,9.30
2018-02-10T16:41:32.592Z,9.60
2018-02-10T16:44:01.481Z,9.90
2018-02-10T16:46:30.563Z,9.70
2018-02-10T16:49:00.773Z,7.87
2018-02-10T16:51:29.637Z,6.60
2018-02-10T16:53:58.499Z,8.20
2018-02-10T16:56:27.355Z,6.47
2018-02-10T16:58:56.241Z,9.23
2018-02-10T17:01:25.365Z,8.17
2018-02-10T17:03:54.199Z,10.07
2018-02-10T17:06:23.311Z,9.80
2018-02-10T17:08:52.146Z,16.17
2018-02-10T17:11:21.061Z,13.00
2018-02-10T17:13:49.963Z,11.10
2018-02-10T17:16:19.116Z,8.13
2018-02-10T17:18:47.971Z,7.40
2018-02-10T17:21:16.823Z,7.50
2018-02-10T17:23:45.648Z,7.60
2018-02-10T17:26:14.527Z,8.00
2018-02-10T17:28:43.365Z,7.57
2018-02-10T17:31:12.249Z,9.80
2018-02-10T17:33:41.442Z,7.53
2018-02-10T17:36:11.491Z,6.57
2018-02-10T17:38:40.342Z,8.07
2018-02-10T17:41:09.213Z,8.20
2018-02-10T17:43:38.105Z,13.60
2018-02-10T17:46:06.970Z,9.33
2018-02-10T17:48:35.827Z,8.40
2018-02-10T17:51:05.464Z,9.77
2018-02-10T17:53:34.751Z,7.63
2018-02-10T17:56:03.637Z,7.73
2018-02-10T17:58:32.472Z,8.67
2018-02-10T18:01:01.344Z,6.93
2018-02-10T18:03:30.171Z,6.33
2018-02-10T18:05:59.327Z,6.90
2018-02-10T18:08:28.456Z,6.07
2018-02-10T18:10:57.315Z,8.40
2018-02-10T18:13:26.455Z,4.70
2018-02-10T18:15:55.611Z,5.53
2018-02-10T18:18:25.143Z,4.07
2018-02-10T18:20:54.330Z,6.77
2018-02-10T18:23:23.474Z,11.27
2018-02-10T18:25:52.309Z,6.30
2018-02-10T18:28:21.138Z,6.67
2018-02-10T18:30:50.005Z,6.53
2018-02-10T18:33:20.406Z,6.83
2018-02-10T18:35:49.970Z,8.20
2018-02-10T18:38:19.202Z,9.30
2018-02-10T18:40:48.056Z,7.33
2018-02-10T18:43:17.173Z,9.53
2018-02-10T18:45:46.040Z,9.10
2018-02-10T18:48:14.978Z,6.07
2018-02-10T18:50:43.813Z,8.97
2018-02-10T18:53:12.692Z,8.40
2018-02-10T18:55:42.142Z,6.33
2018-02-10T18:58:11.288Z,5.73
2018-02-10T19:00:40.196Z,7.57
2018-02-10T19:03:09.048Z,6.27
2018-02-10T19:05:37.914Z,9.40
2018-02-10T19:08:07.068Z,7.90
2018-02-10T19:10:35.952Z,9.20
2018-02-10T19:13:05.064Z,13.97
2018-02-10T19:15:34.258Z,10.17
2018-02-10T19:18:03.151Z,8.47
2018-02-10T19:23:06.012Z,9.50
2018-02-10T19:25:36.474Z,11.13
2018-02-10T19:28:05.361Z,8.53
2018-02-10T19:30:34.204Z,14.10
2018-02-10T19:33:03.316Z,11.40
2018-02-10T19:35:32.240Z,6.77
2018-02-10T19:38:01.424Z,7.13
2018-02-10T19:40:30.374Z,10.00
2018-02-10T19:42:59.956Z,6.77
2018-02-10T19:45:28.802Z,9.63
2018-02-10T19:47:57.642Z,9.47
2018-02-10T19:50:27.474Z,4.80
2018-02-10T19:52:56.304Z,9.33
2018-02-10T19:55:25.245Z,9.47
2018-02-10T19:57:54.087Z,9.23
2018-02-10T20:00:33.008Z,13.80
2018-02-10T20:03:01.870Z,12.77
2018-02-10T20:05:30.799Z,17.43
2018-02-10T20:07:59.651Z,15.73
2018-02-10T20:10:28.472Z,19.00
2018-02-10T20:12:57.344Z,27.23
2018-02-10T20:15:27.059Z,20.37
2018-02-10T20:17:55.964Z,24.23
2018-02-10T20:20:24.860Z,15.23
2018-02-10T20:22:53.724Z,19.73
2018-02-10T20:25:22.574Z,16.30
2018-02-10T20:27:52.146Z,14.83
2018-02-10T20:30:20.986Z,20.97
2018-02-10T20:32:49.854Z,13.50
2018-02-10T20:35:18.713Z,15.83
2018-02-10T20:37:47.542Z,14.43
2018-02-10T20:40:16.444Z,12.50
2018-02-10T20:42:45.282Z,15.50
2018-02-10T20:45:14.124Z,11.57
2018-02-10T20:47:43.022Z,11.67
2018-02-10T20:50:11.858Z,13.23
2018-02-10T20:52:40.716Z,11.43
2018-02-10T20:55:09.569Z,11.33
2018-02-10T20:57:39.288Z,15.73
2018-02-10T21:00:08.175Z,11.63
2018-02-10T21:02:37.014Z,15.77
2018-02-10T21:05:05.895Z,36.47
2018-02-10T21:07:35.704Z,25.07
2018-02-10T21:10:04.976Z,21.50
2018-02-10T21:12:33.817Z,12.87
2018-02-10T21:15:02.776Z,14.03
2018-02-10T21:17:31.648Z,13.80
2018-02-10T21:20:00.812Z,11.47
2018-02-10T21:22:29.641Z,10.30
2018-02-10T21:24:58.798Z,9.07
2018-02-10T21:27:28.544Z,8.43
2018-02-10T21:29:57.378Z,12.83
2018-02-10T21:32:26.212Z,10.67
2018-02-10T21:34:55.090Z,10.13
2018-02-10T21:37:23.956Z,12.63
2018-02-10T21:39:52.899Z,12.90
2018-02-10T21:42:21.735Z,12.17
2018-02-10T21:44:50.615Z,11.77
2018-02-10T21:47:19.480Z,9.63
2018-02-10T21:49:48.319Z,9.47
2018-02-10T21:52:17.152Z,4.07
2018-02-10T21:54:46.035Z,11.10
2018-02-10T21:57:14.864Z,4.77
2018-02-10T21:59:47.852Z,10.50
2018-02-10T22:02:16.688Z,6.73
2018-02-10T22:04:45.529Z,7.50
2018-02-10T22:07:14.388Z,7.63
2018-02-10T22:09:44.148Z,8.43
2018-02-10T22:12:12.992Z,11.73
2018-02-10T22:14:41.851Z,9.63
2018-02-10T22:17:10.676Z,7.70
2018-02-10T22:19:39.516Z,8.17
2018-02-10T22:22:09.234Z,10.90
2018-02-10T22:24:38.480Z,8.03
2018-02-10T22:27:07.351Z,9.37
2018-02-10T22:29:36.211Z,8.20
2018-02-10T22:32:05.054Z,8.83
2018-02-10T22:34:33.885Z,11.97
2018-02-10T22:37:03.436Z,10.50
2018-02-10T22:39:32.300Z,7.67
2018-02-10T22:42:01.166Z,14.07
2018-02-10T22:44:30.014Z,13.33
2018-02-10T22:46:58.950Z,11.00
2018-02-10T22:49:27.836Z,11.20
2018-02-10T22:51:56.670Z,11.23
2018-02-10T22:54:25.518Z,7.10
2018-02-10T22:56:54.376Z,11.27
2018-02-10T22:59:23.270Z,13.00
2018-02-10T23:01:52.180Z,12.23
2018-02-10T23:04:21.040Z,6.53
2018-02-10T23:06:50.492Z,18.30
2018-02-10T23:09:19.322Z,9.67
2018-02-10T23:11:48.230Z,11.33
2018-02-10T23:14:17.320Z,9.63
2018-02-10T23:16:46.810Z,10.87
2018-02-10T23:19:16.400Z,12.87
2018-02-10T23:21:45.228Z,12.70
2018-02-10T23:24:14.056Z,8.90
2018-02-10T23:26:42.916Z,5.20
2018-02-10T23:29:11.746Z,8.60
2018-02-10T23:31:40.696Z,11.70
2018-02-10T23:34:09.552Z,8.93
2018-02-10T23:36:39.182Z,9.47
2018-02-10T23:39:08.338Z,18.50
2018-02-10T23:41:37.234Z,9.33
2018-02-10T23:44:06.312Z,10.37
2018-02-10T23:46:35.881Z,8.07
2018-02-10T23:49:04.774Z,9.53
2018-02-10T23:51:33.616Z,10.70
2018-02-10T23:54:02.460Z,12.97
2018-02-10T23:56:31.332Z,9.53
2018-02-10T23:59:00.180Z,12.10
